createdAt,value
2023-04-18T00:00:43.583Z,4.40
2023-04-18T00:03:10.047Z,4.44
2023-04-18T00:05:36.513Z,4.41
2023-04-18T00:08:02.716Z,4.34
2023-04-18T00:10:28.935Z,4.33
2023-04-18T00:12:55.153Z,4.16
2023-04-18T00:15:21.417Z,4.19
2023-04-18T00:17:47.686Z,4.06
2023-04-18T00:20:13.953Z,4.17
2023-04-18T00:22:40.166Z,4.25
2023-04-18T00:25:06.592Z,4.32
2023-04-18T00:27:32.811Z,4.26
2023-04-18T00:29:59.025Z,4.27
2023-04-18T00:32:25.268Z,4.23
2023-04-18T00:34:51.507Z,4.18
2023-04-18T00:37:17.706Z,4.08
2023-04-18T00:39:43.910Z,3.96
2023-04-18T00:42:10.104Z,3.85
2023-04-18T00:44:36.309Z,3.93
2023-04-18T00:47:02.527Z,4.04
2023-04-18T00:49:28.741Z,3.96
2023-04-18T00:51:55.541Z,3.90
2023-04-18T00:54:21.814Z,3.95
2023-04-18T00:56:48.045Z,4.01
2023-04-18T00:59:14.245Z,3.88
2023-04-18T01:01:40.501Z,3.82
2023-04-18T01:04:07.789Z,3.85
2023-04-18T01:06:34.120Z,3.58
2023-04-18T01:09:00.324Z,3.44
2023-04-18T01:11:26.533Z,3.33
2023-04-18T01:13:59.613Z,3.41
2023-04-18T01:16:25.914Z,3.35
2023-04-18T01:18:52.205Z,3.48
2023-04-18T01:21:18.424Z,3.43
2023-04-18T01:23:44.623Z,3.46
2023-04-18T01:26:10.838Z,3.44
2023-04-18T01:28:37.062Z,3.42
2023-04-18T01:31:03.345Z,3.48
2023-04-18T01:33:29.587Z,3.51
2023-04-18T01:35:55.806Z,3.44
2023-04-18T01:38:21.999Z,3.36
2023-04-18T01:40:48.700Z,3.40
2023-04-18T01:43:14.903Z,3.30
2023-04-18T01:45:41.129Z,3.15
2023-04-18T01:48:07.344Z,3.12
2023-04-18T01:50:33.556Z,3.28
2023-04-18T01:52:59.760Z,3.38
2023-04-18T01:55:25.977Z,3.29
2023-04-18T01:57:52.179Z,3.30
2023-04-18T02:00:18.615Z,3.14
2023-04-18T02:02:44.898Z,3.07
2023-04-18T02:05:11.207Z,3.05
2023-04-18T02:07:37.420Z,3.01
2023-04-18T02:10:03.673Z,2.96
2023-04-18T02:18:48.556Z,3.15
2023-04-18T02:21:14.764Z,3.09
2023-04-18T02:23:40.967Z,2.99
2023-04-18T02:26:07.179Z,3.05
2023-04-18T02:28:33.377Z,3.07
2023-04-18T02:30:59.650Z,3.11
2023-04-18T02:33:25.867Z,3.10
2023-04-18T02:35:52.073Z,3.10
2023-04-18T02:38:18.282Z,3.09
2023-04-18T02:40:44.494Z,3.10
2023-04-18T02:43:10.695Z,3.02
2023-04-18T02:45:36.949Z,2.95
2023-04-18T02:48:03.225Z,2.99
2023-04-18T02:50:29.501Z,3.04
2023-04-18T02:52:55.720Z,3.28
2023-04-18T02:55:21.954Z,3.38
2023-04-18T02:57:48.199Z,3.45
2023-04-18T03:00:14.499Z,3.47
2023-04-18T03:02:40.936Z,3.39
2023-04-18T03:05:07.616Z,3.22
2023-04-18T03:07:33.910Z,3.30
2023-04-18T03:10:00.140Z,3.16
2023-04-18T03:12:26.376Z,3.14
2023-04-18T03:14:52.614Z,3.19
2023-04-18T03:17:18.846Z,3.31
2023-04-18T03:19:45.036Z,3.16
2023-04-18T03:22:11.250Z,3.11
2023-04-18T03:24:37.462Z,3.24
2023-04-18T03:27:03.692Z,3.28
2023-04-18T03:29:29.898Z,3.23
2023-04-18T03:31:56.133Z,3.09
2023-04-18T03:34:22.346Z,3.03
2023-04-18T03:36:48.550Z,3.01
2023-04-18T03:39:14.761Z,3.03
2023-04-18T03:41:40.984Z,2.93
2023-04-18T03:44:07.187Z,2.98
2023-04-18T03:46:33.423Z,3.04
2023-04-18T03:48:59.700Z,3.00
2023-04-18T03:51:25.908Z,3.00
2023-04-18T03:53:52.132Z,2.96
2023-04-18T03:56:18.351Z,2.97
2023-04-18T03:58:44.553Z,2.91
2023-04-18T04:01:10.770Z,2.97
2023-04-18T04:03:37.213Z,3.02
2023-04-18T04:06:03.702Z,3.06
2023-04-18T04:08:29.894Z,3.19
2023-04-18T04:10:56.100Z,3.18
2023-04-18T04:13:22.305Z,3.12
2023-04-18T04:15:48.522Z,3.20
2023-04-18T04:18:14.726Z,3.35
2023-04-18T04:20:40.943Z,3.48
2023-04-18T04:23:07.159Z,3.55
2023-04-18T04:25:33.366Z,3.60
2023-04-18T04:27:59.586Z,3.61
2023-04-18T04:30:25.782Z,3.59
2023-04-18T04:32:52.021Z,3.63
2023-04-18T04:35:18.235Z,3.71
2023-04-18T04:37:44.598Z,3.81
2023-04-18T04:40:10.888Z,3.85
2023-04-18T04:42:37.102Z,3.92
2023-04-18T04:45:03.416Z,3.99
2023-04-18T04:47:29.654Z,4.07
2023-04-18T04:49:55.865Z,4.11
2023-04-18T04:52:22.083Z,4.15
2023-04-18T04:54:48.273Z,4.22
2023-04-18T04:57:14.482Z,4.23
2023-04-18T04:59:40.682Z,4.23
2023-04-18T05:02:06.984Z,4.24
2023-04-18T05:04:33.361Z,4.25
2023-04-18T05:06:59.655Z,4.32
2023-04-18T05:09:25.863Z,4.39
2023-04-18T05:11:52.088Z,4.47
2023-04-18T05:14:18.295Z,4.55
2023-04-18T05:16:44.532Z,4.60
2023-04-18T05:19:10.773Z,4.69
2023-04-18T05:21:37.001Z,4.74
2023-04-18T05:24:03.214Z,4.83
2023-04-18T05:26:29.435Z,4.92
2023-04-18T05:28:55.640Z,4.96
2023-04-18T05:31:21.900Z,5.06
2023-04-18T05:33:48.108Z,5.11
2023-04-18T05:36:14.325Z,5.21
2023-04-18T05:38:40.529Z,5.29
2023-04-18T05:41:06.750Z,5.37
2023-04-18T05:43:32.963Z,5.47
2023-04-18T05:45:59.211Z,5.56
2023-04-18T05:48:25.444Z,5.62
2023-04-18T05:50:51.653Z,5.76
2023-04-18T05:53:17.867Z,5.85
2023-04-18T05:55:44.072Z,5.99
2023-04-18T05:58:10.276Z,6.02
2023-04-18T06:00:36.482Z,6.03
2023-04-18T06:03:02.900Z,6.10
2023-04-18T06:05:29.400Z,6.24
2023-04-18T06:07:55.689Z,6.35
2023-04-18T06:10:21.910Z,6.39
2023-04-18T06:12:48.115Z,6.49
2023-04-18T06:15:14.327Z,6.57
2023-04-18T06:17:40.591Z,6.99
2023-04-18T06:20:07.011Z,8.61
2023-04-18T06:22:33.234Z,10.13
2023-04-18T06:24:59.465Z,10.23
2023-04-18T06:27:31.116Z,10.56
2023-04-18T06:29:58.204Z,10.55
2023-04-18T06:32:24.450Z,10.46
2023-04-18T06:34:50.665Z,10.46
2023-04-18T06:37:17.167Z,10.22
2023-04-18T06:39:43.386Z,9.40
2023-04-18T06:42:09.608Z,8.78
2023-04-18T06:44:35.808Z,7.96
2023-04-18T06:47:02.251Z,7.83
2023-04-18T06:49:28.451Z,7.73
2023-04-18T06:51:54.662Z,7.73
2023-04-18T06:54:20.876Z,7.78
2023-04-18T06:56:47.096Z,7.65
2023-04-18T06:59:13.404Z,7.67
2023-04-18T07:01:40.181Z,7.59
2023-04-18T07:04:06.483Z,7.60
2023-04-18T07:06:32.797Z,7.63
2023-04-18T07:08:59.014Z,7.46
2023-04-18T07:11:25.238Z,7.57
2023-04-18T07:13:51.435Z,7.60
2023-04-18T07:16:17.679Z,7.57
2023-04-18T07:18:43.911Z,7.51
2023-04-18T07:21:10.165Z,7.51
2023-04-18T07:23:36.621Z,7.53
2023-04-18T07:26:03.119Z,7.55
2023-04-18T07:28:29.490Z,7.49
2023-04-18T07:30:55.761Z,7.60
2023-04-18T07:33:22.290Z,7.64
2023-04-18T07:35:48.504Z,7.72
2023-04-18T07:38:14.711Z,7.79
2023-04-18T07:40:40.962Z,7.88
2023-04-18T07:43:07.276Z,7.89
2023-04-18T07:45:33.474Z,8.04
2023-04-18T07:47:59.782Z,8.02
2023-04-18T07:50:26.023Z,7.93
2023-04-18T07:52:52.247Z,7.86
2023-04-18T07:55:18.446Z,8.04
2023-04-18T07:57:45.962Z,7.95
2023-04-18T08:00:13.588Z,7.92
2023-04-18T08:02:40.189Z,7.82
2023-04-18T08:05:06.901Z,7.84
2023-04-18T08:07:33.242Z,7.97
2023-04-18T08:09:59.459Z,8.07
2023-04-18T08:12:25.667Z,7.95
2023-04-18T08:14:51.878Z,7.88
2023-04-18T08:17:18.155Z,7.84
2023-04-18T08:19:44.400Z,7.85
2023-04-18T08:22:10.643Z,7.97
2023-04-18T08:24:40.114Z,8.17
2023-04-18T08:27:06.440Z,8.27
2023-04-18T08:29:32.942Z,8.37
2023-04-18T08:31:59.549Z,8.53
2023-04-18T08:34:25.798Z,8.52
2023-04-18T08:36:52.013Z,8.67
2023-04-18T08:39:18.236Z,8.70
2023-04-18T08:41:44.504Z,8.67
2023-04-18T08:44:12.929Z,8.72
2023-04-18T08:46:42.134Z,8.64
2023-04-18T08:49:09.606Z,8.79
2023-04-18T08:51:37.130Z,8.72
2023-04-18T08:54:05.022Z,8.76
2023-04-18T08:56:31.244Z,8.74
2023-04-18T08:58:57.608Z,8.82
2023-04-18T09:01:43.892Z,8.85
2023-04-18T09:04:10.186Z,9.03
2023-04-18T09:06:36.661Z,9.07
2023-04-18T09:09:02.923Z,9.17
2023-04-18T09:11:29.704Z,9.29
2023-04-18T09:13:56.064Z,9.34
2023-04-18T09:16:22.850Z,9.19
2023-04-18T09:19:08.218Z,9.21
2023-04-18T09:21:34.599Z,9.20
2023-04-18T09:24:19.441Z,9.25
2023-04-18T09:26:45.691Z,9.11
2023-04-18T09:29:11.990Z,9.04
2023-04-18T09:31:52.857Z,9.02
2023-04-18T09:34:22.135Z,9.11
2023-04-18T09:36:48.428Z,9.19
2023-04-18T09:39:23.431Z,9.30
2023-04-18T09:41:59.070Z,9.34
2023-04-18T09:44:25.272Z,9.46
2023-04-18T09:46:51.471Z,9.46
2023-04-18T09:49:17.881Z,9.47
2023-04-18T09:51:44.384Z,9.58
2023-04-18T09:54:10.623Z,9.71
2023-04-18T09:56:36.902Z,9.87
2023-04-18T09:59:05.104Z,9.93
2023-04-18T10:01:31.373Z,10.09
2023-04-18T10:03:57.749Z,10.06
2023-04-18T10:06:24.228Z,10.16
2023-04-18T10:08:50.449Z,10.16
2023-04-18T10:11:18.005Z,10.06
2023-04-18T10:13:47.122Z,10.10
2023-04-18T10:16:13.527Z,10.10
2023-04-18T10:18:39.769Z,10.20
2023-04-18T10:21:05.971Z,10.18
2023-04-18T10:23:32.148Z,10.07
2023-04-18T10:25:58.535Z,10.21
2023-04-18T10:28:24.760Z,10.36
2023-04-18T10:30:51.636Z,10.30
2023-04-18T10:33:30.267Z,10.46
2023-04-18T10:36:03.537Z,10.49
2023-04-18T10:38:29.878Z,10.63
2023-04-18T10:41:15.096Z,10.55
2023-04-18T10:44:00.080Z,10.91
2023-04-18T10:46:32.260Z,10.99
2023-04-18T10:49:17.619Z,10.80
2023-04-18T10:51:44.155Z,11.12
2023-04-18T10:54:11.659Z,11.45
2023-04-18T10:56:37.915Z,10.88
2023-04-18T10:59:04.173Z,10.88
2023-04-18T11:01:32.732Z,11.40
2023-04-18T11:03:59.521Z,11.41
2023-04-18T11:06:25.829Z,11.58
2023-04-18T11:08:52.405Z,11.47
2023-04-18T11:11:18.619Z,11.63
2023-04-18T11:13:54.573Z,11.46
2023-04-18T11:16:27.546Z,11.66
2023-04-18T11:18:53.776Z,12.06
2023-04-18T11:21:20.001Z,12.00
2023-04-18T11:23:46.660Z,11.61
2023-04-18T11:26:12.873Z,11.87
2023-04-18T11:28:39.114Z,11.85
2023-04-18T11:31:05.362Z,12.11
2023-04-18T11:33:32.556Z,12.05
2023-04-18T11:35:58.759Z,12.35
2023-04-18T11:38:30.983Z,12.39
2023-04-18T11:40:57.211Z,12.49
2023-04-18T11:43:24.268Z,12.52
2023-04-18T11:45:54.017Z,13.11
2023-04-18T11:48:20.245Z,12.96
2023-04-18T11:50:46.470Z,13.11
2023-04-18T11:53:12.680Z,13.68
2023-04-18T11:55:38.891Z,13.56
2023-04-18T11:58:05.095Z,13.61
2023-04-18T12:00:35.269Z,13.20
2023-04-18T12:03:02.163Z,12.82
2023-04-18T12:05:29.517Z,12.53
2023-04-18T12:07:56.086Z,13.04
2023-04-18T12:10:22.317Z,13.76
2023-04-18T12:12:52.034Z,14.06
2023-04-18T12:15:18.284Z,14.66
2023-04-18T12:17:44.760Z,14.65
2023-04-18T12:20:11.107Z,14.21
2023-04-18T12:22:40.769Z,13.62
2023-04-18T12:25:17.223Z,13.94
2023-04-18T12:27:47.704Z,14.50
2023-04-18T12:30:13.962Z,14.73
2023-04-18T12:32:40.233Z,13.93
2023-04-18T12:35:06.788Z,13.52
2023-04-18T12:37:33.009Z,12.82
2023-04-18T12:39:59.217Z,12.97
2023-04-18T12:42:25.449Z,12.98
2023-04-18T12:44:51.643Z,12.90
2023-04-18T12:47:17.886Z,12.90
2023-04-18T12:49:44.092Z,13.19
2023-04-18T12:52:10.454Z,13.05
2023-04-18T12:54:38.068Z,13.16
2023-04-18T12:57:04.332Z,13.10
2023-04-18T12:59:30.552Z,13.34
2023-04-18T13:01:56.900Z,12.87
2023-04-18T13:04:23.349Z,12.74
2023-04-18T13:06:49.714Z,12.51
2023-04-18T13:09:16.004Z,12.36
2023-04-18T13:11:42.298Z,12.35
2023-04-18T13:14:08.507Z,12.27
2023-04-18T13:16:35.075Z,12.27
2023-04-18T13:19:01.318Z,12.38
2023-04-18T13:21:27.553Z,12.33
2023-04-18T13:23:53.756Z,12.21
2023-04-18T13:26:19.996Z,12.17
2023-04-18T13:28:46.210Z,12.22
2023-04-18T13:31:12.555Z,12.15
2023-04-18T13:33:39.541Z,12.19
2023-04-18T13:36:05.907Z,12.40
2023-04-18T13:38:32.112Z,12.60
2023-04-18T13:41:08.882Z,12.72
2023-04-18T13:43:37.450Z,12.94
2023-04-18T13:46:03.798Z,12.83
2023-04-18T13:48:30.043Z,12.74
2023-04-18T13:50:56.617Z,12.63
2023-04-18T13:53:22.846Z,12.32
2023-04-18T13:55:49.057Z,12.07
2023-04-18T13:58:15.329Z,11.99
2023-04-18T14:00:41.547Z,12.00
2023-04-18T14:03:07.861Z,12.04
2023-04-18T14:05:34.145Z,12.10
2023-04-18T14:08:00.418Z,12.18
2023-04-18T14:10:26.743Z,12.18
2023-04-18T14:12:52.959Z,12.17
2023-04-18T14:15:19.173Z,12.29
2023-04-18T14:17:45.885Z,12.32
2023-04-18T14:20:12.290Z,12.48
2023-04-18T14:22:38.514Z,12.60
2023-04-18T14:25:04.907Z,12.51
2023-04-18T14:27:31.134Z,12.43
2023-04-18T14:29:57.331Z,12.30
2023-04-18T14:32:23.579Z,12.29
2023-04-18T14:34:49.836Z,12.34
2023-04-18T14:37:17.548Z,12.45
2023-04-18T14:39:45.930Z,12.40
2023-04-18T14:42:12.162Z,12.33
2023-04-18T14:44:38.355Z,12.24
2023-04-18T14:47:04.680Z,12.30
2023-04-18T14:49:30.891Z,12.42
2023-04-18T14:51:57.117Z,12.54
2023-04-18T14:54:23.330Z,12.55
2023-04-18T14:56:49.604Z,12.68
2023-04-18T14:59:16.805Z,12.64
2023-04-18T15:01:43.490Z,12.70
2023-04-18T15:04:09.873Z,12.65
2023-04-18T15:06:36.302Z,12.61
2023-04-18T15:09:02.517Z,12.54
2023-04-18T15:11:28.738Z,12.62
2023-04-18T15:13:54.984Z,12.87
2023-04-18T15:16:21.272Z,12.84
2023-04-18T15:18:47.510Z,12.68
2023-04-18T15:21:13.728Z,12.42
2023-04-18T15:23:39.952Z,12.16
2023-04-18T15:26:06.168Z,12.02
2023-04-18T15:28:32.389Z,11.99
2023-04-18T15:30:58.602Z,12.06
2023-04-18T15:33:24.835Z,11.91
2023-04-18T15:35:51.256Z,11.84
2023-04-18T15:38:17.520Z,11.69
2023-04-18T15:40:43.731Z,11.77
2023-04-18T15:43:09.951Z,11.88
2023-04-18T15:45:36.178Z,12.00
2023-04-18T15:48:02.598Z,12.08
2023-04-18T15:50:29.214Z,12.13
2023-04-18T15:52:56.555Z,12.14
2023-04-18T15:55:22.824Z,12.26
2023-04-18T15:57:49.039Z,12.25
2023-04-18T16:00:15.374Z,12.08
2023-04-18T16:02:44.673Z,11.97
2023-04-18T16:05:11.300Z,11.89
2023-04-18T16:07:37.903Z,12.11
2023-04-18T16:10:04.360Z,12.03
2023-04-18T16:15:12.961Z,12.01
2023-04-18T16:17:42.715Z,12.04
2023-04-18T16:22:49.185Z,11.90
2023-04-18T16:25:37.540Z,11.67
2023-04-18T16:28:04.851Z,11.71
2023-04-18T16:30:34.238Z,11.64
2023-04-18T16:33:00.624Z,11.66
2023-04-18T16:35:26.937Z,11.69
2023-04-18T16:37:53.165Z,11.77
2023-04-18T16:40:19.376Z,11.68
2023-04-18T16:42:45.589Z,11.57
2023-04-18T16:45:11.794Z,11.50
2023-04-18T16:47:38.176Z,11.33
2023-04-18T16:50:04.548Z,11.29
2023-04-18T16:52:30.815Z,11.46
2023-04-18T16:54:57.025Z,11.27
2023-04-18T16:57:23.264Z,11.34
2023-04-18T16:59:49.471Z,11.36
2023-04-18T17:02:16.493Z,11.20
2023-04-18T17:04:56.266Z,11.13
2023-04-18T17:07:22.594Z,10.98
2023-04-18T17:09:48.816Z,10.92
2023-04-18T17:12:15.052Z,10.91
2023-04-18T17:14:41.249Z,10.78
2023-04-18T17:17:07.482Z,10.77
2023-04-18T17:19:33.699Z,10.57
2023-04-18T17:21:59.929Z,10.50
2023-04-18T17:24:26.133Z,10.43
2023-04-18T17:26:52.388Z,10.32
2023-04-18T17:29:18.592Z,10.28
2023-04-18T17:31:44.825Z,10.15
2023-04-18T17:34:11.053Z,10.06
2023-04-18T17:36:37.265Z,10.06
2023-04-18T17:39:03.530Z,9.86
2023-04-18T17:41:29.727Z,9.63
2023-04-18T17:43:55.934Z,9.53
2023-04-18T17:46:22.150Z,9.61
2023-04-18T17:48:48.387Z,9.37
2023-04-18T17:51:14.612Z,9.28
2023-04-18T17:53:40.817Z,9.35
2023-04-18T17:56:07.053Z,9.16
2023-04-18T17:58:33.271Z,9.04
2023-04-18T18:00:59.552Z,9.06
2023-04-18T18:03:25.949Z,8.97
2023-04-18T18:05:52.264Z,8.87
2023-04-18T18:08:18.466Z,8.91
2023-04-18T18:10:45.547Z,8.91
2023-04-18T18:13:12.791Z,8.61
2023-04-18T18:15:38.998Z,8.49
2023-04-18T18:18:05.362Z,8.69
2023-04-18T18:20:31.590Z,8.56
2023-04-18T18:22:57.811Z,8.52
2023-04-18T18:25:24.019Z,8.28
2023-04-18T18:27:50.235Z,8.32
2023-04-18T18:30:16.430Z,8.31
2023-04-18T18:32:42.707Z,8.11
2023-04-18T18:35:09.064Z,7.83
2023-04-18T18:37:35.275Z,7.95
2023-04-18T18:40:02.608Z,7.88
2023-04-18T18:42:28.811Z,7.70
2023-04-18T18:44:55.020Z,7.70
2023-04-18T18:47:21.310Z,7.51
2023-04-18T18:49:47.589Z,7.39
2023-04-18T18:52:13.885Z,7.14
2023-04-18T18:54:40.095Z,7.20
2023-04-18T18:57:06.321Z,7.20
2023-04-18T18:59:32.523Z,7.04
2023-04-18T19:01:59.022Z,7.15
2023-04-18T19:04:25.334Z,7.06
2023-04-18T19:06:51.639Z,6.90
2023-04-18T19:09:17.868Z,6.88
2023-04-18T19:11:44.104Z,6.70
2023-04-18T19:14:10.300Z,6.61
2023-04-18T19:16:36.669Z,6.29
2023-04-18T19:19:03.049Z,6.47
2023-04-18T19:21:29.281Z,6.25
2023-04-18T19:23:55.496Z,6.05
2023-04-18T19:26:21.792Z,6.22
2023-04-18T19:28:48.028Z,6.54
2023-04-18T19:31:14.236Z,6.52
2023-04-18T19:33:40.491Z,6.43
2023-04-18T19:36:06.712Z,6.12
2023-04-18T19:38:32.934Z,6.25
2023-04-18T19:40:59.127Z,6.19
2023-04-18T19:43:25.336Z,6.23
2023-04-18T19:45:52.622Z,6.25
2023-04-18T19:48:20.775Z,6.18
2023-04-18T19:50:46.965Z,6.02
2023-04-18T19:53:13.170Z,5.94
2023-04-18T19:55:39.368Z,5.80
2023-04-18T19:58:05.589Z,5.66
2023-04-18T20:00:31.797Z,5.63
2023-04-18T20:02:58.266Z,5.45
2023-04-18T20:05:24.790Z,5.81
2023-04-18T20:07:51.098Z,5.74
2023-04-18T20:10:19.070Z,5.86
2023-04-18T20:12:45.303Z,5.67
2023-04-18T20:15:11.686Z,5.63
2023-04-18T20:17:37.959Z,5.38
2023-04-18T20:20:04.444Z,5.47
2023-04-18T20:22:30.681Z,5.30
2023-04-18T20:24:56.877Z,5.49
2023-04-18T20:27:23.092Z,5.40
2023-04-18T20:29:49.299Z,5.46
2023-04-18T20:32:15.498Z,5.51
2023-04-18T20:34:41.702Z,5.56
2023-04-18T20:37:07.911Z,5.55
2023-04-18T20:39:34.122Z,5.54
2023-04-18T20:42:00.351Z,5.55
2023-04-18T20:44:26.566Z,5.58
2023-04-18T20:46:52.776Z,5.54
2023-04-18T20:49:18.991Z,5.50
2023-04-18T20:51:45.213Z,5.48
2023-04-18T20:54:11.412Z,5.44
2023-04-18T20:56:37.654Z,5.37
2023-04-18T20:59:03.901Z,5.34
2023-04-18T21:01:30.293Z,5.48
2023-04-18T21:03:56.924Z,5.41
2023-04-18T21:06:23.270Z,5.48
2023-04-18T21:08:49.488Z,5.45
2023-04-18T21:11:15.708Z,5.41
2023-04-18T21:13:41.950Z,5.27
2023-04-18T21:16:08.223Z,5.20
2023-04-18T21:18:34.461Z,5.33
2023-04-18T21:21:00.679Z,5.33
2023-04-18T21:23:26.910Z,5.31
2023-04-18T21:25:53.109Z,5.28
2023-04-18T21:28:19.416Z,5.30
2023-04-18T21:30:45.712Z,5.23
2023-04-18T21:33:12.134Z,5.25
2023-04-18T21:35:38.334Z,5.24
2023-04-18T21:38:04.542Z,5.19
2023-04-18T21:40:30.787Z,5.15
2023-04-18T21:42:56.998Z,5.12
2023-04-18T21:45:23.251Z,5.05
2023-04-18T21:47:49.684Z,5.06
2023-04-18T21:50:15.930Z,4.88
2023-04-18T21:52:42.134Z,4.85
2023-04-18T21:55:08.527Z,4.95
2023-04-18T21:57:35.065Z,4.85
2023-04-18T22:00:01.297Z,4.80
2023-04-18T22:02:27.688Z,4.76
2023-04-18T22:04:53.977Z,4.81
2023-04-18T22:07:20.187Z,4.82
2023-04-18T22:09:46.386Z,4.74
2023-04-18T22:12:12.606Z,4.80
2023-04-18T22:14:38.800Z,4.66
2023-04-18T22:17:05.018Z,4.80
2023-04-18T22:19:31.250Z,4.65
2023-04-18T22:21:57.477Z,4.62
2023-04-18T22:24:23.683Z,4.68
2023-04-18T22:26:49.896Z,4.60
2023-04-18T22:29:16.130Z,4.55
2023-04-18T22:31:42.797Z,4.50
2023-04-18T22:34:09.031Z,4.60
2023-04-18T22:36:35.240Z,4.62
2023-04-18T22:39:01.466Z,4.37
2023-04-18T22:41:27.677Z,4.19
2023-04-18T22:43:53.893Z,4.09
2023-04-18T22:46:20.123Z,4.08
2023-04-18T22:48:46.334Z,4.09
2023-04-18T22:51:12.528Z,4.06
2023-04-18T22:53:38.760Z,3.99
2023-04-18T22:56:05.092Z,3.86
2023-04-18T22:58:31.316Z,3.79
2023-04-18T23:00:57.517Z,3.75
2023-04-18T23:03:23.877Z,3.84
2023-04-18T23:05:50.278Z,4.04
2023-04-18T23:08:16.503Z,3.98
2023-04-18T23:10:42.699Z,3.91
2023-04-18T23:13:08.911Z,3.85
2023-04-18T23:15:35.209Z,3.77
2023-04-18T23:18:01.561Z,3.81
2023-04-18T23:20:27.851Z,3.78
2023-04-18T23:22:54.073Z,3.72
2023-04-18T23:25:20.285Z,3.66
2023-04-18T23:27:46.499Z,3.72
2023-04-18T23:30:12.702Z,3.77
2023-04-18T23:32:38.970Z,3.75
2023-04-18T23:35:05.664Z,3.68
2023-04-18T23:37:31.897Z,3.61
2023-04-18T23:39:58.957Z,3.58
2023-04-18T23:42:25.170Z,3.60
2023-04-18T23:44:51.376Z,3.54
2023-04-18T23:47:17.669Z,3.46
2023-04-18T23:49:43.904Z,3.44
2023-04-18T23:52:10.110Z,3.46
2023-04-18T23:54:36.332Z,3.50
2023-04-18T23:57:02.559Z,3.63
2023-04-18T23:59:28.767Z,3.59
